DSA weather

Robin Hood Doncaster Sheffield Airport
Doncaster, England, United Kingdom

Public forecast

Using degrees Celsius for public forecast. Weather courtesy of forecast.io.

METAR (pilot weather report)

Retrieved 2019/09/23 07:20 UTC (32 minutes ago):

EGCN 230720Z 19007KT 9999 FEW043 14/13 Q1008

TAF (pilot weather forecast)

Retrieved 2019/09/23 06:00 UTC (2 hours ago):

TAF EGCN 230501Z 2306/2406 17008KT 9999 FEW045 TEMPO 2306/2308 3000 BR BKN004 BECMG 2317/2320 BKN012 TEMPO 2317/2320 8000 -RA TEMPO 2320/2406 7000 RA PROB30 TEMPO 2320/2324 4000 +RA BKN008 PROB30 TEMPO 2403/2406 14020G30KT 3000 +SHRA +SHGS BKN009CB